Time;durP1;ratioP1;P1;durP2;ratioP2;P2;SDS_P1;SDS_P2;PMS_P1;PMS_P2;Temp;Humidity;BMP_temperature;BMP_pressure;BME280_temperature;BME280_humidity;BME280_pressure;Samples;Min_cycle;Max_cycle;Signal;HPM_P1;HPM_P2
2022/12/04 00:00:22;;;;;;;46.65;26.10;;;2.30;99.90;;;;;;4915700;29;20149;-82
2022/12/04 00:02:47;;;;;;;44.95;26.17;;;2.30;99.90;;;;;;4915935;29;20527;-82
2022/12/04 00:05:13;;;;;;;44.83;26.73;;;2.30;99.90;;;;;;4914890;29;20484;-83
2022/12/04 00:07:39;;;;;;;46.58;27.30;;;2.30;99.90;;;;;;4916392;29;20044;-82
2022/12/04 00:10:05;;;;;;;46.10;26.38;;;2.30;99.90;;;;;;4915549;29;20052;-82
2022/12/04 00:12:30;;;;;;;47.70;26.55;;;2.30;99.90;;;;;;4912734;29;20594;-82
2022/12/04 00:14:56;;;;;;;49.58;26.65;;;2.30;99.90;;;;;;4915029;29;20079;-82
2022/12/04 00:17:21;;;;;;;49.90;27.13;;;2.30;99.90;;;;;;4915234;29;20099;-82
2022/12/04 00:19:47;;;;;;;47.90;27.42;;;2.30;99.90;;;;;;4914543;29;20047;-82
2022/12/04 00:22:13;;;;;;;45.45;26.30;;;2.30;99.90;;;;;;4915250;29;20127;-82
2022/12/04 00:24:39;;;;;;;47.75;26.52;;;2.30;99.90;;;;;;4916451;29;20404;-82
2022/12/04 00:27:04;;;;;;;45.72;25.70;;;2.40;99.90;;;;;;4915925;29;20055;-82
2022/12/04 00:29:30;;;;;;;46.22;26.52;;;2.30;99.90;;;;;;4916150;29;20044;-82
2022/12/04 00:31:56;;;;;;;44.67;26.27;;;2.40;99.90;;;;;;4916508;29;20100;-82
2022/12/04 00:34:21;;;;;;;47.85;24.92;;;2.40;99.90;;;;;;4913337;29;20052;-82
2022/12/04 00:36:47;;;;;;;44.58;25.65;;;2.40;99.90;;;;;;4916329;29;20040;-83
2022/12/04 00:39:13;;;;;;;42.45;24.67;;;2.40;99.90;;;;;;4914544;29;20552;-82
2022/12/04 00:41:38;;;;;;;46.60;25.70;;;2.40;99.90;;;;;;4915752;29;20485;-82
2022/12/04 00:44:04;;;;;;;46.65;25.27;;;2.30;99.90;;;;;;4915040;29;20052;-82
2022/12/04 00:46:30;;;;;;;45.10;25.70;;;2.30;99.90;;;;;;4915150;29;20047;-82
2022/12/04 00:48:55;;;;;;;43.35;25.73;;;2.40;99.90;;;;;;4914423;29;20437;-82
2022/12/04 00:51:23;;;;;;;43.63;25.02;;;2.40;99.90;;;;;;4930132;29;20084;-82
2022/12/04 00:53:50;;;;;;;46.75;25.15;;;2.40;99.90;;;;;;4914775;29;20446;-81
2022/12/04 00:56:21;;;;;;;48.20;26.00;;;2.40;99.90;;;;;;4912715;29;20604;-82
2022/12/04 00:58:50;;;;;;;44.55;26.02;;;2.40;99.90;;;;;;4915466;29;20096;-81
2022/12/04 01:01:18;;;;;;;47.58;25.88;;;2.40;99.90;;;;;;4906968;29;20151;-82
2022/12/04 01:03:44;;;;;;;43.05;24.17;;;2.40;99.90;;;;;;4915152;29;20055;-82
2022/12/04 01:06:31;;;;;;;43.70;24.75;;;2.40;99.90;;;;;;4915149;29;20055;-82
2022/12/04 01:08:58;;;;;;;40.97;24.92;;;2.40;99.90;;;;;;4915399;29;20422;-82
2022/12/04 01:11:25;;;;;;;43.88;24.90;;;2.40;99.90;;;;;;4914612;29;20087;-82
2022/12/04 01:13:51;;;;;;;43.30;24.98;;;2.40;99.90;;;;;;4914674;29;20493;-82
2022/12/04 01:16:24;;;;;;;44.95;25.60;;;2.40;99.90;;;;;;4914007;29;20476;-82
2022/12/04 01:18:49;;;;;;;47.88;25.92;;;2.40;99.90;;;;;;4913769;29;20055;-82
2022/12/04 01:21:16;;;;;;;47.08;24.83;;;2.40;99.90;;;;;;4918310;29;20048;-82
2022/12/04 01:23:42;;;;;;;46.95;26.30;;;2.40;99.90;;;;;;4900167;29;20063;-82
2022/12/04 01:26:08;;;;;;;48.40;26.27;;;2.40;99.90;;;;;;4914870;29;20497;-82
2022/12/04 01:28:34;;;;;;;47.75;26.23;;;2.40;99.90;;;;;;4917641;29;20047;-82
2022/12/04 01:31:00;;;;;;;47.05;25.63;;;2.40;99.90;;;;;;4918553;29;20036;-82
2022/12/04 01:33:27;;;;;;;47.83;25.75;;;2.40;99.90;;;;;;4919267;29;20048;-82
2022/12/04 01:35:54;;;;;;;46.00;25.98;;;2.40;99.90;;;;;;4916344;29;20067;-82
2022/12/04 01:38:20;;;;;;;45.58;26.00;;;2.40;99.90;;;;;;4907698;29;20054;-82
2022/12/04 01:40:46;;;;;;;42.08;25.17;;;2.40;99.90;;;;;;4918126;29;20122;-82
2022/12/04 01:43:12;;;;;;;46.80;25.60;;;2.40;99.90;;;;;;4918975;29;20050;-82
2022/12/04 01:45:39;;;;;;;43.90;25.23;;;2.40;99.90;;;;;;4917253;29;20104;-82
2022/12/04 01:48:27;;;;;;;47.53;27.35;;;2.40;99.90;;;;;;4918330;29;20079;-81
2022/12/04 01:51:14;;;;;;;43.03;25.10;;;2.40;99.90;;;;;;4915589;29;20036;-82
2022/12/04 01:53:43;;;;;;;49.00;26.08;;;2.40;99.90;;;;;;4915459;29;20048;-82
2022/12/04 01:56:10;;;;;;;46.15;26.38;;;2.40;99.90;;;;;;4914116;29;20400;-82
2022/12/04 01:58:41;;;;;;;46.13;25.60;;;2.40;99.90;;;;;;4916408;29;20051;-82
2022/12/04 02:01:07;;;;;;;47.30;26.25;;;2.40;99.90;;;;;;4917572;29;20492;-82
2022/12/04 02:03:34;;;;;;;46.92;26.85;;;2.40;99.90;;;;;;4918683;29;20063;-82
2022/12/04 02:06:00;;;;;;;46.67;26.17;;;2.40;99.90;;;;;;4917235;29;20045;-82
2022/12/04 02:08:27;;;;;;;44.30;26.20;;;2.40;99.90;;;;;;4916905;29;20480;-82
2022/12/04 02:11:08;;;;;;;45.33;26.42;;;2.40;99.90;;;;;;4916952;29;20044;-82
2022/12/04 02:14:01;;;;;;;48.10;27.05;;;2.40;99.90;;;;;;4917886;29;20548;-82
2022/12/04 02:16:33;;;;;;;45.78;26.30;;;2.40;99.90;;;;;;4917504;29;20059;-82
2022/12/04 02:19:16;;;;;;;42.08;26.17;;;2.30;99.90;;;;;;4900254;29;20109;-82
2022/12/04 02:21:46;;;;;;;46.10;27.20;;;2.40;99.90;;;;;;4917402;29;20127;-82
2022/12/04 02:24:52;;;;;;;46.97;26.02;;;2.30;99.90;;;;;;4916582;29;20396;-82
2022/12/04 02:27:40;;;;;;;44.05;25.45;;;2.40;99.90;;;;;;4891888;29;20071;-82
2022/12/04 02:30:11;;;;;;;48.38;27.15;;;2.40;99.90;;;;;;4917875;29;20048;-82
2022/12/04 02:32:39;;;;;;;44.83;27.20;;;2.40;99.90;;;;;;4916933;29;20048;-82
2022/12/04 02:35:32;;;;;;;48.00;27.58;;;2.40;99.90;;;;;;4917554;29;20048;-82
2022/12/04 02:38:34;;;;;;;45.72;27.45;;;2.40;99.90;;;;;;4917715;29;20044;-81
2022/12/04 02:41:07;;;;;;;47.03;29.15;;;2.30;99.90;;;;;;4916573;29;20096;-81
2022/12/04 02:43:41;;;;;;;46.97;28.20;;;2.30;99.90;;;;;;4916273;29;20044;-81
2022/12/04 02:46:13;;;;;;;47.85;28.13;;;2.40;99.90;;;;;;4917626;29;20052;-81
2022/12/04 02:48:41;;;;;;;45.93;28.37;;;2.30;99.90;;;;;;4915991;29;20062;-81
2022/12/04 02:51:12;;;;;;;49.75;29.00;;;2.40;99.90;;;;;;4910476;29;20063;-81
2022/12/04 02:53:43;;;;;;;47.97;27.50;;;2.40;99.90;;;;;;4912623;29;20055;-81
2022/12/04 02:56:12;;;;;;;46.17;27.85;;;2.40;99.90;;;;;;4917168;29;20044;-81
2022/12/04 02:58:58;;;;;;;50.22;29.50;;;2.40;99.90;;;;;;4915964;29;20484;-81
2022/12/04 03:01:29;;;;;;;48.97;28.27;;;2.40;99.90;;;;;;4914627;29;20512;-81
2022/12/04 03:04:11;;;;;;;48.03;29.27;;;2.40;99.90;;;;;;4917682;29;20098;-81
2022/12/04 03:06:40;;;;;;;48.08;28.17;;;2.40;99.90;;;;;;4905102;29;20477;-81
2022/12/04 03:09:24;;;;;;;49.88;29.08;;;2.40;99.90;;;;;;4915777;29;20111;-81
2022/12/04 03:11:52;;;;;;;;;;;2.40;99.90;;;;;;4917833;29;20392;-81
2022/12/04 03:14:22;;;;;;;49.65;29.08;;;2.30;99.90;;;;;;4915543;29;20295;-81
2022/12/04 03:16:51;;;;;;;49.97;29.27;;;2.30;99.90;;;;;;4917194;29;20070;-81
2022/12/04 03:19:20;;;;;;;50.95;30.25;;;2.30;99.90;;;;;;4916161;29;20052;-81
2022/12/04 03:21:55;;;;;;;52.83;29.02;;;2.30;99.90;;;;;;4917176;29;20048;-81
2022/12/04 03:24:32;;;;;;;48.35;29.48;;;2.30;99.90;;;;;;4915137;29;20523;-81
2022/12/04 03:27:13;;;;;;;49.97;29.13;;;2.30;99.90;;;;;;4917012;29;20123;-81
2022/12/04 03:30:00;;;;;;;48.75;29.80;;;2.30;99.90;;;;;;4916704;29;20048;-81
2022/12/04 03:32:34;;;;;;;51.40;29.88;;;2.30;99.90;;;;;;4917361;29;20059;-81
2022/12/04 03:35:10;;;;;;;50.13;29.00;;;2.30;99.90;;;;;;4916928;29;20047;-81
2022/12/04 03:37:53;;;;;;;46.75;29.40;;;2.30;99.90;;;;;;4915007;29;20046;-81
2022/12/04 03:40:23;;;;;;;49.20;28.70;;;2.30;99.90;;;;;;4910823;29;20047;-81
2022/12/04 03:43:01;;;;;;;50.92;29.25;;;2.30;99.90;;;;;;4916828;29;20032;-81
2022/12/04 03:45:58;;;;;;;49.97;28.65;;;2.20;99.90;;;;;;4914039;29;20119;-81
2022/12/04 03:48:46;;;;;;;47.47;29.17;;;2.30;99.90;;;;;;4913135;29;20484;-81
2022/12/04 03:52:02;;;;;;;53.70;29.45;;;2.30;99.90;;;;;;4899939;29;20484;-80
2022/12/04 03:54:33;;;;;;;49.70;27.98;;;2.30;99.90;;;;;;4842363;29;20441;-81
2022/12/04 03:57:11;;;;;;;51.08;27.70;;;2.20;99.90;;;;;;4896432;29;20056;-81
2022/12/04 03:59:42;;;;;;;51.40;29.65;;;2.30;99.90;;;;;;4901798;29;20055;-81
2022/12/04 04:02:15;;;;;;;50.22;28.77;;;2.30;99.90;;;;;;4915323;29;20048;-80
2022/12/04 04:04:46;;;;;;;48.50;29.20;;;2.30;99.90;;;;;;4916128;29;20059;-81
2022/12/04 04:07:34;;;;;;;48.80;28.33;;;2.30;99.90;;;;;;4916717;29;20048;-81
2022/12/04 04:10:06;;;;;;;48.53;28.90;;;2.20;99.90;;;;;;4916920;29;20496;-81
2022/12/04 04:12:39;;;;;;;51.33;29.83;;;2.20;99.90;;;;;;4915681;29;20050;-81
2022/12/04 04:26:25;;;;;;;49.83;28.77;;;2.20;99.90;;;;;;4915300;29;20083;-81
2022/12/04 04:28:51;;;;;;;51.00;29.45;;;2.20;99.90;;;;;;4915649;29;20040;-81
2022/12/04 04:31:32;;;;;;;51.38;29.83;;;2.20;99.90;;;;;;4916370;29;20500;-81
2022/12/04 04:34:15;;;;;;;48.55;30.13;;;2.20;99.90;;;;;;4914532;29;20063;-81
2022/12/04 04:37:08;;;;;;;49.63;29.27;;;2.20;99.90;;;;;;4911670;29;20056;-81
2022/12/04 04:39:37;;;;;;;49.95;29.48;;;2.20;99.90;;;;;;4914752;29;20083;-81
2022/12/04 04:42:19;;;;;;;48.60;29.15;;;2.20;99.90;;;;;;4914735;29;20068;-81
2022/12/04 04:45:16;;;;;;;52.03;30.30;;;2.20;99.90;;;;;;4915206;29;20508;-81
2022/12/04 04:47:44;;;;;;;53.08;31.70;;;2.20;99.90;;;;;;4915813;29;20511;-81
2022/12/04 04:50:11;;;;;;;50.72;30.92;;;2.20;99.90;;;;;;4908911;29;20049;-81
2022/12/04 04:52:40;;;;;;;48.15;29.15;;;2.20;99.90;;;;;;4915370;29;20446;-81
2022/12/04 04:55:07;;;;;;;53.75;30.55;;;2.20;99.90;;;;;;4919895;29;20051;-81
2022/12/04 04:57:34;;;;;;;48.15;29.80;;;2.20;99.90;;;;;;4919715;29;20035;-80
2022/12/04 05:00:02;;;;;;;50.60;29.90;;;2.20;99.90;;;;;;4919693;29;20040;-81
2022/12/04 05:02:28;;;;;;;51.45;30.38;;;2.20;99.90;;;;;;4918345;29;20040;-81
2022/12/04 05:04:54;;;;;;;53.08;31.50;;;2.20;99.90;;;;;;4921107;29;20055;-81
2022/12/04 05:07:20;;;;;;;53.42;31.30;;;2.20;99.90;;;;;;4917119;29;20044;-81
2022/12/04 05:09:46;;;;;;;50.55;30.85;;;2.20;99.90;;;;;;4919392;29;20448;-80
2022/12/04 05:12:11;;;;;;;51.75;30.85;;;2.10;99.90;;;;;;4919319;29;20044;-81
2022/12/04 05:14:37;;;;;;;52.28;31.10;;;2.20;99.90;;;;;;4919104;29;20087;-81
2022/12/04 05:17:04;;;;;;;49.75;29.95;;;2.20;99.90;;;;;;4917836;29;20099;-86
2022/12/04 05:22:19;;;;;;;52.70;30.33;;;2.10;99.90;;;;;;4918567;29;20448;-85
2022/12/04 05:24:44;;;;;;;49.53;30.83;;;2.10;99.90;;;;;;4919860;29;20040;-80
2022/12/04 05:27:10;;;;;;;48.90;30.08;;;2.10;99.90;;;;;;4917553;29;20060;-80
2022/12/04 05:29:36;;;;;;;51.10;31.30;;;2.10;99.90;;;;;;4918843;29;20385;-80
2022/12/04 05:32:02;;;;;;;50.50;31.05;;;2.10;99.90;;;;;;4917281;29;20147;-81
2022/12/04 05:34:28;;;;;;;51.08;30.33;;;2.10;99.90;;;;;;4917979;29;20052;-81
2022/12/04 05:36:54;;;;;;;52.35;29.60;;;2.10;99.90;;;;;;4917365;29;20103;-80
2022/12/04 05:39:19;;;;;;;50.38;29.90;;;2.20;99.90;;;;;;4919377;29;20048;-80
2022/12/04 05:41:45;;;;;;;49.33;29.55;;;2.20;99.90;;;;;;4901609;29;20055;-80
2022/12/04 05:44:11;;;;;;;47.30;29.42;;;2.20;99.90;;;;;;4898363;29;20051;-80
2022/12/04 05:46:37;;;;;;;48.67;29.77;;;2.20;99.90;;;;;;4900690;29;20437;-80
2022/12/04 05:49:02;;;;;;;49.50;30.50;;;2.10;99.90;;;;;;4900358;29;20425;-80
2022/12/04 05:51:28;;;;;;;49.35;29.92;;;2.10;99.90;;;;;;4899611;29;20048;-80
2022/12/04 05:53:53;;;;;;;47.10;29.35;;;2.20;99.90;;;;;;4899378;29;20056;-80
2022/12/04 05:56:20;;;;;;;49.20;30.25;;;2.10;99.90;;;;;;4915029;29;20040;-80
2022/12/04 05:58:46;;;;;;;51.17;30.60;;;2.20;99.90;;;;;;4917111;29;20052;-80
2022/12/04 06:01:18;;;;;;;52.17;30.30;;;2.10;99.90;;;;;;4918103;29;20036;-80
2022/12/04 06:03:44;;;;;;;49.92;30.65;;;2.10;99.90;;;;;;4917016;29;20106;-80
2022/12/04 06:06:18;;;;;;;50.00;30.20;;;2.10;99.90;;;;;;4916953;29;20567;-80
2022/12/04 06:08:44;;;;;;;49.83;30.20;;;2.10;99.90;;;;;;4918028;29;20138;-80
2022/12/04 06:11:19;;;;;;;50.05;29.83;;;2.10;99.90;;;;;;4916866;29;20127;-80
2022/12/04 06:13:45;;;;;;;49.67;29.38;;;2.10;99.90;;;;;;4918936;29;20602;-80
2022/12/04 06:16:13;;;;;;;44.67;29.08;;;2.10;99.90;;;;;;4916075;29;20048;-80
2022/12/04 06:18:38;;;;;;;48.72;30.55;;;2.10;99.90;;;;;;4917068;29;20523;-80
2022/12/04 06:21:04;;;;;;;47.22;29.35;;;2.10;99.90;;;;;;4918999;29;20040;-80
2022/12/04 06:23:30;;;;;;;47.70;29.33;;;2.10;99.90;;;;;;4917532;29;20108;-80
2022/12/04 06:25:55;;;;;;;48.83;29.10;;;2.10;99.90;;;;;;4914958;29;20048;-80
2022/12/04 06:28:21;;;;;;;46.33;29.13;;;2.10;99.90;;;;;;4917306;29;20437;-80
2022/12/04 06:30:46;;;;;;;49.30;29.85;;;2.10;99.90;;;;;;4917248;29;20079;-80
2022/12/04 06:33:12;;;;;;;50.05;29.70;;;2.10;99.90;;;;;;4916315;29;20052;-80
2022/12/04 06:35:37;;;;;;;46.97;28.52;;;2.10;99.90;;;;;;4917380;29;20080;-80
2022/12/04 06:38:03;;;;;;;46.55;28.40;;;2.10;99.90;;;;;;4914353;29;20131;-82
2022/12/04 06:40:29;;;;;;;47.78;28.83;;;2.10;99.90;;;;;;4915104;29;20151;-82
2022/12/04 06:42:54;;;;;;;47.72;28.38;;;2.10;99.90;;;;;;4917684;29;20048;-82
2022/12/04 06:45:21;;;;;;;49.25;29.05;;;2.10;99.90;;;;;;4916973;29;20064;-82
2022/12/04 06:47:46;;;;;;;50.85;29.95;;;2.00;99.90;;;;;;4915346;29;20123;-82
2022/12/04 06:50:12;;;;;;;50.03;29.80;;;2.10;99.90;;;;;;4911592;29;20147;-81
2022/12/04 06:52:38;;;;;;;49.60;28.88;;;2.10;99.90;;;;;;4917472;29;20103;-81
2022/12/04 06:55:04;;;;;;;45.53;26.90;;;2.10;99.90;;;;;;4916198;29;20048;-81
2022/12/04 06:57:29;;;;;;;48.63;28.77;;;2.10;99.90;;;;;;4915890;29;20040;-83
2022/12/04 06:59:55;;;;;;;48.90;29.15;;;2.10;99.90;;;;;;4915315;29;20055;-82
2022/12/04 07:02:21;;;;;;;49.42;29.38;;;2.10;99.90;;;;;;4914063;29;20080;-82
2022/12/04 07:04:46;;;;;;;48.92;29.80;;;2.10;99.90;;;;;;4915691;29;20044;-82
2022/12/04 07:07:12;;;;;;;50.05;29.80;;;2.10;99.90;;;;;;4914280;29;20540;-82
2022/12/04 07:09:37;;;;;;;49.85;29.15;;;2.10;99.90;;;;;;4916251;29;20048;-82
2022/12/04 07:12:03;;;;;;;46.42;27.45;;;2.10;99.90;;;;;;4916832;29;20408;-82
2022/12/04 07:14:29;;;;;;;46.42;28.48;;;2.00;99.90;;;;;;4916231;29;20051;-81
2022/12/04 07:16:54;;;;;;;48.40;29.05;;;2.00;99.90;;;;;;4914846;29;20044;-81
2022/12/04 07:19:20;;;;;;;48.95;29.38;;;2.10;99.90;;;;;;4916775;29;20036;-81
2022/12/04 07:21:45;;;;;;;47.92;28.17;;;2.10;99.90;;;;;;4914781;29;20041;-82
2022/12/04 07:24:16;;;;;;;48.38;29.58;;;2.10;99.90;;;;;;4916142;29;20052;-83
2022/12/04 07:26:41;;;;;;;50.42;29.38;;;2.10;99.90;;;;;;4916320;29;20543;-82
2022/12/04 07:29:09;;;;;;;47.10;28.55;;;2.10;99.90;;;;;;4915847;29;20044;-83
2022/12/04 07:31:34;;;;;;;47.60;28.85;;;2.00;99.90;;;;;;4916965;29;20496;-83
2022/12/04 07:34:00;;;;;;;47.67;29.02;;;2.10;99.90;;;;;;4916888;29;20075;-83
2022/12/04 07:36:26;;;;;;;48.35;29.52;;;2.00;99.90;;;;;;4914514;29;20046;-83
2022/12/04 07:38:54;;;;;;;51.78;29.77;;;2.10;99.90;;;;;;4913535;29;20064;-82
2022/12/04 07:41:20;;;;;;;50.55;29.10;;;2.00;99.90;;;;;;4915055;29;20068;-82
2022/12/04 07:43:46;;;;;;;48.60;29.38;;;2.00;99.90;;;;;;4915353;29;20080;-82
2022/12/04 07:46:21;;;;;;;48.20;29.67;;;2.00;99.90;;;;;;4916818;29;20040;-82
2022/12/04 07:48:46;;;;;;;49.97;29.02;;;2.10;99.90;;;;;;4913552;29;20445;-82
2022/12/04 07:51:15;;;;;;;48.25;29.17;;;2.10;99.90;;;;;;4915874;29;20072;-83
2022/12/04 07:53:42;;;;;;;48.00;29.83;;;2.00;99.90;;;;;;4915839;29;20060;-83
2022/12/04 07:56:09;;;;;;;47.00;28.60;;;2.10;99.90;;;;;;4915272;29;20052;-83
2022/12/04 07:58:35;;;;;;;48.67;29.75;;;2.10;99.90;;;;;;4916373;29;20085;-83
2022/12/04 08:01:11;;;;;;;47.30;28.73;;;2.00;99.90;;;;;;4913783;29;20082;-83
2022/12/04 08:03:38;;;;;;;45.95;28.20;;;2.00;99.90;;;;;;4916376;29;20048;-83
2022/12/04 08:06:05;;;;;;;49.03;29.83;;;2.10;99.90;;;;;;4915405;29;20040;-83
2022/12/04 08:08:31;;;;;;;45.85;28.08;;;2.10;99.90;;;;;;4915859;29;20483;-82
2022/12/04 08:10:58;;;;;;;50.40;29.15;;;2.10;99.90;;;;;;4914073;29;20040;-83
2022/12/04 08:13:23;;;;;;;49.75;29.50;;;2.00;99.90;;;;;;4916412;29;20048;-82
2022/12/04 08:15:49;;;;;;;47.47;29.13;;;2.10;99.90;;;;;;4913441;29;20374;-82
2022/12/04 08:18:14;;;;;;;48.28;29.17;;;2.10;99.90;;;;;;4914757;29;20507;-84
2022/12/04 08:20:40;;;;;;;50.63;30.17;;;2.10;99.90;;;;;;4902451;29;20039;-83
2022/12/04 08:23:06;;;;;;;51.35;30.15;;;2.10;99.90;;;;;;4915362;29;20068;-84
2022/12/04 08:25:31;;;;;;;48.03;28.50;;;2.00;99.90;;;;;;4903849;29;20420;-84
2022/12/04 08:27:57;;;;;;;45.83;27.95;;;2.10;99.90;;;;;;4917970;29;20079;-82
2022/12/04 08:30:22;;;;;;;50.90;30.23;;;2.00;99.90;;;;;;4919019;29;20075;-83
2022/12/04 08:32:48;;;;;;;47.45;29.40;;;2.00;99.90;;;;;;4910097;29;20129;-83
2022/12/04 08:35:14;;;;;;;44.92;28.30;;;2.10;99.90;;;;;;4909361;29;20051;-82
2022/12/04 08:37:39;;;;;;;49.92;29.38;;;2.10;99.90;;;;;;4919117;29;20052;-82
2022/12/04 08:40:05;;;;;;;47.35;28.85;;;2.10;99.90;;;;;;4907239;29;20044;-82
2022/12/04 08:42:31;;;;;;;45.97;27.83;;;2.10;99.90;;;;;;4915182;29;20052;-82
2022/12/04 08:44:57;;;;;;;50.97;29.90;;;2.10;99.90;;;;;;4918907;29;20381;-82
2022/12/04 08:47:22;;;;;;;47.92;28.25;;;2.10;99.90;;;;;;4919037;29;20048;-82
2022/12/04 08:49:48;;;;;;;48.45;29.38;;;2.10;99.90;;;;;;4916481;29;20148;-81
2022/12/04 08:52:14;;;;;;;49.42;29.60;;;2.10;99.90;;;;;;4919230;29;20063;-82
2022/12/04 08:54:40;;;;;;;48.58;28.38;;;2.10;99.90;;;;;;4919264;29;20401;-83
2022/12/04 08:57:05;;;;;;;45.58;27.92;;;2.10;99.90;;;;;;4918881;29;20048;-85
2022/12/04 08:59:31;;;;;;;48.83;28.70;;;2.10;99.90;;;;;;4914243;29;20059;-82
2022/12/04 09:01:57;;;;;;;47.20;28.65;;;2.10;99.90;;;;;;4917176;29;20036;-84
2022/12/04 09:04:22;;;;;;;47.70;29.20;;;2.10;99.90;;;;;;4918792;29;20056;-83
2022/12/04 09:06:48;;;;;;;49.53;28.63;;;2.10;99.90;;;;;;4918582;29;20540;-84
2022/12/04 09:09:14;;;;;;;48.70;28.50;;;2.10;99.90;;;;;;4918621;29;20056;-84
2022/12/04 09:11:39;;;;;;;48.10;28.92;;;2.10;99.90;;;;;;4920295;29;20048;-83
2022/12/04 09:14:05;;;;;;;49.28;29.45;;;2.10;99.90;;;;;;4918940;29;20123;-84
2022/12/04 09:16:30;;;;;;;49.15;28.42;;;2.10;99.90;;;;;;4919778;29;20051;-84
2022/12/04 09:18:56;;;;;;;51.70;28.95;;;2.10;99.90;;;;;;4919787;29;20040;-83
2022/12/04 09:21:23;;;;;;;45.15;28.38;;;2.10;99.90;;;;;;4917633;29;20059;-83
2022/12/04 09:23:49;;;;;;;46.58;28.83;;;2.10;99.90;;;;;;4918687;29;20055;-83
2022/12/04 09:26:27;;;;;;;46.28;28.60;;;2.10;99.90;;;;;;4918645;29;20044;-83
2022/12/04 09:28:54;;;;;;;45.47;28.20;;;2.10;99.90;;;;;;4917796;29;20508;-83
2022/12/04 09:31:21;;;;;;;44.13;27.35;;;2.10;99.90;;;;;;4919493;29;20036;-83
2022/12/04 09:33:47;;;;;;;45.78;28.25;;;2.10;99.90;;;;;;4918089;29;20485;-83
2022/12/04 09:36:16;;;;;;;44.75;27.70;;;2.10;99.90;;;;;;4917513;29;20040;-83
2022/12/04 09:38:44;;;;;;;45.70;27.65;;;2.10;99.90;;;;;;4918208;29;20143;-83
2022/12/04 09:41:25;;;;;;;48.28;28.00;;;2.10;99.90;;;;;;4918144;29;20107;-83
2022/12/04 09:44:01;;;;;;;47.03;28.60;;;2.10;99.90;;;;;;4917754;29;20048;-83
2022/12/04 09:46:40;;;;;;;45.97;27.65;;;2.10;99.90;;;;;;4917744;29;20044;-83
2022/12/04 09:49:40;;;;;;;43.83;27.13;;;2.10;99.90;;;;;;4918139;29;20111;-84
2022/12/04 09:52:33;;;;;;;43.78;26.98;;;2.10;99.90;;;;;;4919171;29;20557;-83
2022/12/04 09:55:01;;;;;;;44.83;27.13;;;2.10;99.90;;;;;;4917933;29;20070;-83
2022/12/04 09:57:43;;;;;;;41.10;26.35;;;2.10;99.90;;;;;;4917958;29;20047;-83
2022/12/04 10:00:13;;;;;;;42.92;26.52;;;2.10;99.90;;;;;;4917658;29;20091;-84
2022/12/04 10:02:41;;;;;;;45.58;27.02;;;2.20;99.90;;;;;;4918135;29;20046;-84
2022/12/04 10:05:20;;;;;;;46.28;26.85;;;2.20;99.90;;;;;;4917307;29;20091;-83
2022/12/04 10:07:57;;;;;;;45.85;27.55;;;2.20;99.90;;;;;;4912467;29;20075;-83
2022/12/04 10:10:32;;;;;;;42.53;26.27;;;2.20;99.90;;;;;;4916648;29;20051;-83
2022/12/04 10:13:35;;;;;;;42.78;27.63;;;2.10;99.90;;;;;;4917665;29;20051;-84
2022/12/04 10:16:30;;;;;;;44.35;26.17;;;2.20;99.90;;;;;;4919310;29;20373;-84
2022/12/04 10:19:21;;;;;;;41.65;26.60;;;2.20;99.90;;;;;;4923356;29;20457;-83
2022/12/04 10:21:55;;;;;;;39.88;25.23;;;2.20;99.90;;;;;;4921441;29;20083;-83
2022/12/04 10:24:37;;;;;;;42.72;26.77;;;2.20;99.90;;;;;;4916927;29;20108;-83
2022/12/04 10:27:13;;;;;;;41.03;26.15;;;2.20;99.90;;;;;;4917655;29;20056;-83
2022/12/04 10:29:42;;;;;;;40.65;26.02;;;2.20;99.90;;;;;;4917336;29;20058;-83
2022/12/04 10:32:21;;;;;;;41.90;25.13;;;2.20;99.90;;;;;;4916433;29;20079;-83
2022/12/04 10:34:51;;;;;;;39.53;24.90;;;2.20;99.90;;;;;;4917407;29;20052;-83
2022/12/04 10:37:16;;;;;;;42.50;26.63;;;2.30;99.90;;;;;;4916582;29;20051;-83
2022/12/04 10:39:48;;;;;;;40.40;24.98;;;2.30;99.90;;;;;;4916351;29;20039;-84
2022/12/04 10:42:20;;;;;;;40.92;26.27;;;2.30;99.90;;;;;;4915985;29;20511;-82
2022/12/04 10:44:46;;;;;;;42.63;26.17;;;2.30;99.90;;;;;;4905049;29;20575;-85
2022/12/04 10:47:12;;;;;;;40.75;25.38;;;2.30;99.90;;;;;;4915852;29;20106;-85
2022/12/04 10:49:38;;;;;;;40.95;25.35;;;2.40;99.90;;;;;;4915348;29;20386;-83
2022/12/04 10:52:05;;;;;;;37.58;23.83;;;2.40;99.90;;;;;;4917378;29;20134;-84
2022/12/04 10:54:31;;;;;;;37.83;24.85;;;2.40;99.90;;;;;;4916861;29;20059;-85
2022/12/04 10:57:06;;;;;;;37.33;24.10;;;2.40;99.90;;;;;;4916359;29;20135;-85
2022/12/04 10:59:32;;;;;;;39.00;24.08;;;2.40;99.90;;;;;;4909536;29;20044;-85
2022/12/04 11:02:26;;;;;;;36.33;22.50;;;2.40;99.90;;;;;;4916297;29;20510;-84
2022/12/04 11:05:07;;;;;;;37.15;23.92;;;2.40;99.90;;;;;;4918150;29;20046;-85
2022/12/04 11:07:44;;;;;;;35.28;22.27;;;2.40;99.90;;;;;;4917160;29;20059;-86
2022/12/04 11:10:40;;;;;;;37.75;22.55;;;2.40;99.90;;;;;;4916314;29;20048;-86
2022/12/04 11:13:15;;;;;;;37.58;22.35;;;2.50;99.90;;;;;;4914995;29;20191;-85
2022/12/04 11:15:44;;;;;;;35.55;22.15;;;2.50;99.90;;;;;;4915880;29;20401;-85
2022/12/04 11:18:18;;;;;;;35.63;21.98;;;2.50;99.90;;;;;;4914803;29;20051;-83
2022/12/04 11:21:06;;;;;;;36.83;21.98;;;2.50;99.90;;;;;;4915491;29;20044;-85
2022/12/04 11:23:50;;;;;;;34.58;20.83;;;2.50;99.90;;;;;;4899138;29;20053;-85
2022/12/04 11:26:27;;;;;;;35.85;21.23;;;2.50;99.90;;;;;;4909727;29;20056;-84
2022/12/04 11:28:53;;;;;;;31.63;20.08;;;2.60;99.90;;;;;;4914936;29;20400;-84
2022/12/04 11:31:21;;;;;;;32.63;19.50;;;2.60;99.90;;;;;;4915980;29;20496;-83
2022/12/04 11:34:08;;;;;;;34.78;21.13;;;2.60;99.90;;;;;;4913823;29;20040;-84
2022/12/04 11:36:35;;;;;;;32.22;20.70;;;2.60;99.90;;;;;;4911108;29;20055;-83
2022/12/04 11:39:09;;;;;;;30.73;19.83;;;2.60;99.90;;;;;;4917174;29;20392;-83
2022/12/04 11:41:35;;;;;;;32.30;19.67;;;2.70;99.90;;;;;;4912514;29;20130;-83
2022/12/04 11:44:01;;;;;;;31.02;19.58;;;2.70;99.90;;;;;;4912532;29;20512;-85
2022/12/04 11:46:33;;;;;;;31.27;19.90;;;2.70;99.90;;;;;;4912751;29;20047;-83
2022/12/04 11:49:01;;;;;;;32.85;19.45;;;2.70;99.90;;;;;;4914662;29;20067;-83
2022/12/04 11:51:36;;;;;;;32.78;19.40;;;2.70;99.90;;;;;;4916041;29;20052;-83
2022/12/04 11:54:20;;;;;;;30.65;19.30;;;2.70;99.90;;;;;;4915634;29;20519;-83
2022/12/04 11:57:10;;;;;;;31.70;19.48;;;2.70;99.90;;;;;;4916545;29;20102;-84
2022/12/04 11:59:56;;;;;;;32.10;19.60;;;2.70;99.90;;;;;;4916990;29;20051;-83
2022/12/04 12:02:40;;;;;;;30.95;18.85;;;2.70;99.90;;;;;;4908513;29;20060;-83
2022/12/04 12:05:14;;;;;;;30.92;19.40;;;2.70;99.90;;;;;;4914971;29;20079;-84
2022/12/04 12:08:07;;;;;;;30.25;18.52;;;2.70;99.90;;;;;;4911572;29;20044;-84
2022/12/04 12:10:45;;;;;;;31.60;19.63;;;2.70;99.90;;;;;;4913027;29;20071;-84
2022/12/04 12:13:59;;;;;;;35.53;19.58;;;2.70;99.90;;;;;;4913878;29;20494;-84
2022/12/04 12:16:59;;;;;;;29.67;18.83;;;2.70;99.90;;;;;;4895264;29;20492;-85
2022/12/04 12:19:51;;;;;;;30.40;18.55;;;2.80;99.90;;;;;;4914878;29;20062;-85
2022/12/04 12:22:38;;;;;;;31.30;18.42;;;2.80;99.90;;;;;;4913463;29;20037;-84
2022/12/04 12:25:48;;;;;;;28.02;17.42;;;2.80;99.90;;;;;;4914217;29;20086;-83
2022/12/04 12:28:36;;;;;;;27.52;18.10;;;2.80;99.90;;;;;;4861226;29;20563;-84
2022/12/04 12:31:31;;;;;;;29.13;17.33;;;2.80;99.90;;;;;;4914274;29;20794;-84
2022/12/04 12:34:06;;;;;;;28.02;17.98;;;2.80;99.90;;;;;;4910392;29;20047;-83
2022/12/04 12:36:37;;;;;;;28.20;17.52;;;2.80;99.90;;;;;;4909477;29;20052;-85
2022/12/04 12:39:15;;;;;;;26.90;17.70;;;2.80;99.90;;;;;;4914309;29;20485;-83
2022/12/04 12:42:14;;;;;;;29.58;17.77;;;2.80;99.90;;;;;;4912995;29;20040;-85
2022/12/04 12:44:51;;;;;;;30.20;18.50;;;2.80;99.90;;;;;;4914953;29;20055;-85
2022/12/04 12:47:25;;;;;;;28.80;17.77;;;2.80;99.90;;;;;;4916028;29;20404;-85
2022/12/04 12:49:56;;;;;;;29.35;18.13;;;2.90;99.90;;;;;;4914890;29;20111;-84
2022/12/04 12:52:53;;;;;;;29.15;18.45;;;2.80;99.90;;;;;;4912527;29;20052;-84
2022/12/04 12:55:29;;;;;;;27.60;17.17;;;2.90;99.90;;;;;;4913307;29;20048;-84
2022/12/04 12:58:06;;;;;;;28.33;17.17;;;2.90;99.90;;;;;;4911346;29;20441;-83
2022/12/04 13:00:37;;;;;;;28.25;17.80;;;2.90;99.90;;;;;;4913204;29;20048;-84
2022/12/04 13:03:15;;;;;;;30.02;18.35;;;2.90;99.90;;;;;;4912336;29;20083;-82
2022/12/04 13:05:47;;;;;;;29.02;17.30;;;2.90;99.90;;;;;;4913841;29;20040;-82
2022/12/04 13:08:23;;;;;;;26.77;17.35;;;2.90;99.90;;;;;;4912788;29;20082;-83
2022/12/04 13:11:03;;;;;;;27.85;17.17;;;3.00;99.90;;;;;;4913690;29;20082;-82
2022/12/04 13:13:33;;;;;;;27.83;17.23;;;3.00;99.90;;;;;;4913799;29;20071;-82
2022/12/04 13:16:02;;;;;;;29.45;17.85;;;3.00;99.90;;;;;;4916921;29;20047;-83